Time;durP1;ratioP1;P1;durP2;ratioP2;P2;SDS_P1;SDS_P2;PMS_P1;PMS_P2;Temp;Humidity;BMP_temperature;BMP_pressure;BME280_temperature;BME280_humidity;BME280_pressure;Samples;Min_cycle;Max_cycle;Signal;HPM_P1;HPM_P2
2024/03/27 00:02:16;;;;;;;9.77;7.35;;;;;;;7.77;63.93;97669.53;10251267;29;20054;-78
2024/03/27 00:07:17;;;;;;;13.73;8.27;;;;;;;7.70;64.07;97661.34;10257272;28;20044;-78
2024/03/27 00:12:18;;;;;;;13.93;7.90;;;;;;;7.64;64.53;97648.69;10270376;28;20049;-78
2024/03/27 00:17:19;;;;;;;15.27;8.10;;;;;;;7.33;65.56;97636.09;10265506;28;20065;-77
2024/03/27 00:22:20;;;;;;;12.27;8.20;;;;;;;7.09;67.05;97628.97;10267138;28;20047;-77
2024/03/27 00:27:21;;;;;;;13.40;8.63;;;;;;;7.12;67.35;97628.63;10251888;28;20047;-77
2024/03/27 00:32:21;;;;;;;15.02;8.50;;;;;;;7.16;67.58;97632.63;10257934;29;20081;-78
2024/03/27 00:37:22;;;;;;;17.70;8.70;;;;;;;7.28;67.25;97625.91;10265177;28;20043;-77
2024/03/27 00:42:24;;;;;;;15.35;8.57;;;;;;;7.38;66.83;97625.75;10261543;28;20066;-76
2024/03/27 00:47:25;;;;;;;13.80;8.00;;;;;;;7.49;66.64;97621.88;10261337;28;20145;-77
2024/03/27 00:52:29;;;;;;;13.98;9.05;;;;;;;7.58;66.10;97620.81;10251990;29;20499;-76
2024/03/27 00:57:29;;;;;;;13.85;8.63;;;;;;;7.63;65.81;97621.16;10252501;28;20617;-76
2024/03/27 01:02:31;;;;;;;15.23;8.10;;;;;;;7.63;65.38;97613.13;10260719;28;20043;-77
2024/03/27 01:07:33;;;;;;;12.90;8.20;;;;;;;7.63;65.47;97613.13;10263309;28;20047;-77
2024/03/27 01:12:34;;;;;;;12.63;8.73;;;;;;;7.57;65.51;97610.31;10234069;28;20054;-76
2024/03/27 01:17:36;;;;;;;15.13;8.80;;;;;;;7.41;66.45;97616.56;10250411;28;20098;-77
2024/03/27 01:22:39;;;;;;;13.32;7.45;;;;;;;7.31;66.66;97608.72;10240000;29;20098;-77
2024/03/27 01:27:40;;;;;;;11.70;7.93;;;;;;;7.25;67.35;97598.72;10251519;28;20098;-77
2024/03/27 01:32:40;;;;;;;11.82;7.90;;;;;;;7.23;67.23;97600.72;10244569;29;20348;-77
2024/03/27 01:37:41;;;;;;;13.50;7.72;;;;;;;7.27;67.17;97588.72;10243930;28;20055;-77
2024/03/27 01:42:42;;;;;;;11.52;7.97;;;;;;;7.25;66.98;97596.06;10253524;28;20039;-78
2024/03/27 01:47:43;;;;;;;13.40;7.68;;;;;;;7.30;66.50;97603.56;10243235;28;20051;-77
2024/03/27 01:52:44;;;;;;;12.35;7.45;;;;;;;7.41;66.19;97582.66;10247629;29;20152;-78
2024/03/27 01:57:45;;;;;;;11.90;7.40;;;;;;;7.40;66.24;97574.81;10253720;28;20047;-77
2024/03/27 02:02:46;;;;;;;12.95;8.50;;;;;;;7.38;66.25;97577.66;10251761;29;20051;-76
2024/03/27 02:07:48;;;;;;;11.40;8.30;;;;;;;7.57;65.65;97559.53;10259373;28;20074;-76
2024/03/27 02:12:48;;;;;;;9.75;7.85;;;;;;;7.65;65.42;97560.38;10243328;29;20043;-78
2024/03/27 02:17:50;;;;;;;12.35;7.88;;;;;;;7.59;65.85;97529.00;10281089;28;20066;-76
2024/03/27 02:22:55;;;;;;;12.57;7.13;;;;;;;7.70;65.46;97533.09;10259767;28;20043;-77
2024/03/27 02:27:56;;;;;;;16.00;7.55;;;;;;;7.72;65.25;97531.09;10239591;28;20128;-76
2024/03/27 02:32:56;;;;;;;10.60;7.63;;;;;;;7.84;64.68;97519.00;10257276;29;20556;-78
2024/03/27 02:37:57;;;;;;;11.10;7.07;;;;;;;7.89;64.50;97513.94;10256674;28;20384;-78
2024/03/27 02:42:58;;;;;;;14.65;7.78;;;;;;;7.92;64.04;97507.41;10262352;28;20047;-78
2024/03/27 02:47:59;;;;;;;12.45;7.50;;;;;;;8.02;63.70;97505.34;10252186;28;20066;-77
2024/03/27 02:52:59;;;;;;;13.38;7.38;;;;;;;8.03;63.56;97492.81;10242109;29;20067;-77
2024/03/27 02:58:00;;;;;;;10.48;7.25;;;;;;;8.04;63.08;97481.97;10267346;28;20126;-77
2024/03/27 03:03:01;;;;;;;9.07;6.80;;;;;;;8.05;62.84;97475.59;10249839;29;20051;-77
2024/03/27 03:08:02;;;;;;;14.85;7.90;;;;;;;8.06;62.42;97477.25;10248050;28;20130;-77
2024/03/27 03:13:03;;;;;;;10.20;6.60;;;;;;;8.07;62.08;97478.94;10249527;29;20066;-77
2024/03/27 03:18:04;;;;;;;9.55;6.20;;;;;;;8.09;61.91;97468.91;10266555;28;20438;-78
2024/03/27 03:23:05;;;;;;;8.73;6.18;;;;;;;8.12;61.58;97470.38;10249882;29;20051;-78
2024/03/27 03:28:05;;;;;;;8.60;6.15;;;;;;;8.10;61.45;97491.09;10259434;28;20113;-78
2024/03/27 03:33:06;;;;;;;11.32;6.22;;;;;;;8.13;61.38;97482.72;10254355;28;20462;-78
2024/03/27 03:38:07;;;;;;;11.07;6.60;;;;;;;8.12;61.14;97489.09;10267670;28;20098;-78
2024/03/27 03:43:08;;;;;;;10.00;6.28;;;;;;;8.14;60.73;97484.38;10240376;29;20042;-77
2024/03/27 03:48:08;;;;;;;9.52;6.35;;;;;;;8.24;60.91;97476.13;10256591;28;20047;-78
2024/03/27 03:53:09;;;;;;;7.70;5.90;;;;;;;8.21;61.26;97463.94;10243169;29;20043;-78
2024/03/27 03:58:12;;;;;;;9.85;6.47;;;;;;;8.14;61.23;97463.81;10242524;28;20043;-78
2024/03/27 04:03:13;;;;;;;9.10;6.20;;;;;;;8.13;61.00;97464.84;10266673;28;20058;-78
2024/03/27 04:08:13;;;;;;;10.98;6.85;;;;;;;8.18;60.49;97470.47;10254823;28;20047;-78
2024/03/27 04:13:14;;;;;;;10.57;5.75;;;;;;;8.29;60.39;97476.41;10229199;29;20085;-78
2024/03/27 04:18:15;;;;;;;9.82;5.78;;;;;;;8.35;59.51;97467.66;10224784;28;20065;-77
2024/03/27 04:23:16;;;;;;;8.57;5.78;;;;;;;8.39;59.32;97475.16;10248331;29;20098;-77
2024/03/27 04:28:17;;;;;;;11.63;6.15;;;;;;;8.42;59.17;97467.75;10232135;28;20419;-77
2024/03/27 04:33:19;;;;;;;7.70;5.60;;;;;;;8.40;59.33;97470.63;10247016;29;20098;-77
2024/03/27 04:38:20;;;;;;;9.50;6.30;;;;;;;8.34;59.46;97469.50;10246424;28;20043;-77
2024/03/27 04:43:21;;;;;;;9.65;6.25;;;;;;;8.16;60.00;97467.16;10258080;28;20554;-77
2024/03/27 04:48:23;;;;;;;10.07;6.57;;;;;;;8.07;60.53;97457.53;10234110;28;20151;-77
2024/03/27 04:53:23;;;;;;;9.07;5.90;;;;;;;7.99;61.18;97446.91;10236758;29;20047;-77
2024/03/27 04:58:24;;;;;;;9.40;5.72;;;;;;;7.74;62.54;97435.59;10224531;28;20035;-77
2024/03/27 05:03:25;;;;;;;11.80;6.15;;;;;;;7.54;63.16;97432.53;10243393;29;20039;-77
2024/03/27 05:08:25;;;;;;;7.70;5.68;;;;;;;7.47;63.15;97431.59;10256962;28;20414;-77
2024/03/27 05:13:26;;;;;;;11.77;6.70;;;;;;;7.45;63.14;97437.09;10245933;29;20051;-77
2024/03/27 05:18:27;;;;;;;9.63;5.85;;;;;;;7.46;62.81;97441.44;10255501;28;20094;-77
2024/03/27 05:23:28;;;;;;;9.75;6.13;;;;;;;7.44;62.46;97434.63;10228827;29;20091;-77
2024/03/27 05:28:29;;;;;;;8.38;5.95;;;;;;;7.44;62.66;97429.28;10244442;28;20502;-77
2024/03/27 05:33:29;;;;;;;12.80;6.60;;;;;;;7.40;62.93;97439.44;10244540;29;20051;-77
2024/03/27 05:38:30;;;;;;;8.38;6.00;;;;;;;7.36;63.10;97459.50;10244631;28;20449;-77
2024/03/27 05:43:31;;;;;;;8.73;6.20;;;;;;;7.34;63.32;97450.00;10249766;28;20106;-77
2024/03/27 05:48:32;;;;;;;11.50;6.30;;;;;;;7.36;63.19;97456.84;10215223;29;20130;-77
2024/03/27 05:53:33;;;;;;;10.68;5.97;;;;;;;7.57;62.22;97482.09;10244748;29;20593;-77
2024/03/27 05:58:33;;;;;;;7.68;5.75;;;;;;;7.76;61.62;97481.63;10244528;28;20043;-77
2024/03/27 06:03:34;;;;;;;10.15;5.97;;;;;;;7.84;61.61;97489.59;10245345;28;20051;-78
2024/03/27 06:08:35;;;;;;;7.07;5.82;;;;;;;7.88;61.58;97474.88;10262277;28;20139;-77
2024/03/27 06:13:36;;;;;;;8.77;6.13;;;;;;;7.86;61.82;97468.88;10260620;28;20047;-77
2024/03/27 06:18:37;;;;;;;10.05;6.45;;;;;;;8.02;61.60;97462.59;10256802;28;20051;-77
2024/03/27 06:23:37;;;;;;;10.90;6.68;;;;;;;8.11;61.90;97452.66;10260752;28;20047;-77
2024/03/27 06:28:38;;;;;;;10.30;6.40;;;;;;;8.21;61.52;97425.69;10258739;28;20043;-77
2024/03/27 06:33:39;;;;;;;10.45;6.57;;;;;;;8.38;60.76;97443.22;10252963;28;20051;-77
2024/03/27 06:38:41;;;;;;;11.73;6.68;;;;;;;8.55;60.08;97435.91;10234329;28;20039;-77
2024/03/27 06:43:42;;;;;;;7.72;5.88;;;;;;;8.80;59.34;97457.88;10238193;29;20039;-77
2024/03/27 06:48:51;;;;;;;9.85;6.53;;;;;;;8.96;58.14;97472.91;10257642;28;20057;-77
2024/03/27 06:53:52;;;;;;;10.88;5.93;;;;;;;9.35;57.15;97486.03;10237203;29;20058;-78
2024/03/27 06:58:53;;;;;;;9.48;6.68;;;;;;;9.61;56.73;97490.03;10255088;28;20051;-77
2024/03/27 07:03:54;;;;;;;8.85;6.00;;;;;;;9.86;55.89;97496.72;10250317;29;20497;-76
2024/03/27 07:08:55;;;;;;;14.80;6.13;;;;;;;10.11;54.83;97496.34;10225571;28;20102;-77
2024/03/27 07:13:56;;;;;;;11.15;5.68;;;;;;;10.66;52.92;97481.34;10259340;28;20051;-76
2024/03/27 07:18:57;;;;;;;8.55;5.75;;;;;;;11.06;52.03;97493.19;10243934;28;20054;-77
2024/03/27 07:23:58;;;;;;;9.80;5.90;;;;;;;11.61;51.82;97481.69;10236567;29;20082;-76
2024/03/27 07:28:58;;;;;;;7.70;5.78;;;;;;;11.83;50.74;97479.69;10258876;28;20066;-78
2024/03/27 07:33:59;;;;;;;10.60;5.97;;;;;;;12.17;49.17;97474.13;10256243;28;20047;-78
2024/03/27 07:39:00;;;;;;;8.25;6.05;;;;;;;12.16;50.18;97467.13;10259552;28;20043;-78
2024/03/27 07:44:01;;;;;;;11.95;6.65;;;;;;;12.23;49.13;97461.75;10241077;28;20106;-79
2024/03/27 07:49:01;;;;;;;10.35;6.25;;;;;;;12.31;48.91;97456.22;10266799;28;20055;-78
2024/03/27 07:54:02;;;;;;;9.20;6.47;;;;;;;12.78;48.25;97453.47;10247596;28;20055;-78
2024/03/27 07:59:03;;;;;;;8.38;5.80;;;;;;;13.29;46.98;97466.19;10256139;28;20527;-79
2024/03/27 08:04:04;;;;;;;8.10;6.00;;;;;;;13.82;47.68;97452.50;10230379;28;20050;-78
2024/03/27 08:09:08;;;;;;;7.00;5.47;;;;;;;13.92;45.02;97454.72;10237185;28;20482;-79
2024/03/27 08:14:08;;;;;;;11.27;6.38;;;;;;;13.79;47.53;97452.91;10246025;28;20050;-79
2024/03/27 08:19:11;;;;;;;8.00;5.80;;;;;;;13.77;46.58;97476.59;10231451;28;20055;-78
2024/03/27 08:24:12;;;;;;;8.38;6.00;;;;;;;13.41;47.61;97488.78;10248477;28;20074;-77
2024/03/27 08:29:13;;;;;;;14.68;6.68;;;;;;;13.55;47.66;97476.09;10261181;28;20146;-77
2024/03/27 08:34:13;;;;;;;8.85;5.95;;;;;;;13.80;48.66;97488.84;10245481;28;20074;-78
2024/03/27 08:39:15;;;;;;;10.95;6.35;;;;;;;14.12;47.62;97486.97;10243650;28;20039;-77
2024/03/27 08:44:16;;;;;;;9.93;6.47;;;;;;;14.18;47.77;97487.97;10248627;28;20043;-77
2024/03/27 08:49:17;;;;;;;7.65;6.43;;;;;;;13.99;48.44;97484.34;10258094;28;20418;-77
2024/03/27 08:54:18;;;;;;;8.57;5.88;;;;;;;13.69;47.97;97487.63;10254855;28;20043;-77
2024/03/27 08:59:18;;;;;;;9.93;6.63;;;;;;;13.65;48.65;97484.53;10245224;28;20047;-77
2024/03/27 09:04:19;;;;;;;10.35;6.28;;;;;;;14.65;48.19;97478.50;10236325;28;20047;-77
2024/03/27 09:09:20;;;;;;;10.98;5.97;;;;;;;14.90;47.50;97469.56;10242124;28;20047;-77
2024/03/27 09:14:21;;;;;;;10.80;5.88;;;;;;;14.92;45.59;97470.16;10260896;28;20083;-76
2024/03/27 09:19:21;;;;;;;10.70;6.10;;;;;;;15.41;46.06;97465.69;10256079;28;20036;-77
2024/03/27 09:24:23;;;;;;;9.77;6.10;;;;;;;15.65;45.36;97463.94;10255505;28;20402;-77
2024/03/27 09:29:24;;;;;;;8.20;5.77;;;;;;;15.49;45.86;97470.81;10257153;28;20400;-77
2024/03/27 09:34:24;;;;;;;10.07;5.97;;;;;;;16.41;45.19;97478.72;10256841;28;20043;-77
2024/03/27 09:39:25;;;;;;;8.55;5.93;;;;;;;16.50;44.96;97465.66;10260078;28;20051;-77
2024/03/27 09:44:27;;;;;;;7.63;6.15;;;;;;;17.12;44.44;97457.09;10261674;28;20047;-77
2024/03/27 09:49:28;;;;;;;10.77;6.10;;;;;;;17.88;43.12;97455.13;10251206;28;20529;-77
2024/03/27 09:54:32;;;;;;;9.17;5.90;;;;;;;18.25;42.04;97436.53;10255132;28;20043;-77
2024/03/27 09:59:33;;;;;;;5.20;4.70;;;;;;;18.03;41.18;97435.63;10258381;28;20078;-77
2024/03/27 10:04:34;;;;;;;7.28;5.18;;;;;;;18.55;41.27;97421.81;10259488;28;20051;-78
2024/03/27 10:09:35;;;;;;;6.18;4.15;;;;;;;18.16;41.46;97429.88;10245132;28;20050;-77
2024/03/27 10:14:36;;;;;;;5.15;3.97;;;;;;;17.88;42.27;97422.53;10239351;28;20039;-77
2024/03/27 10:19:37;;;;;;;6.55;4.03;;;;;;;17.51;42.89;97431.06;10243595;28;20050;-77
2024/03/27 10:24:38;;;;;;;6.75;4.32;;;;;;;17.58;43.24;97449.91;10248383;28;20039;-77
2024/03/27 10:29:39;;;;;;;4.25;3.08;;;;;;;17.52;42.39;97437.31;10249591;28;20035;-77
2024/03/27 10:34:41;;;;;;;3.30;2.60;;;;;;;16.37;44.13;97445.03;10237509;28;20043;-77
2024/03/27 10:39:51;;;;;;;7.40;2.85;;;;;;;16.78;43.04;97441.44;10243230;28;20058;-77
2024/03/27 10:44:57;;;;;;;3.75;2.35;;;;;;;18.77;41.01;97444.44;10241811;28;20182;-77
2024/03/27 10:49:59;;;;;;;2.97;2.67;;;;;;;18.90;40.85;97443.31;10260990;28;20125;-77
2024/03/27 10:55:07;;;;;;;4.43;3.28;;;;;;;17.91;42.52;97444.63;10256645;28;20471;-77
2024/03/27 11:00:08;;;;;;;3.58;2.72;;;;;;;18.54;42.34;97444.63;10263286;28;20090;-77
2024/03/27 11:05:09;;;;;;;6.85;3.13;;;;;;;19.00;41.20;97437.19;10244711;28;20047;-77
2024/03/27 11:10:21;;;;;;;4.30;3.13;;;;;;;20.01;38.75;97419.66;10265448;28;20122;-77
2024/03/27 11:15:21;;;;;;;5.90;3.33;;;;;;;19.07;39.93;97418.81;10248317;28;20047;-77
2024/03/27 11:20:24;;;;;;;5.05;3.53;;;;;;;18.96;41.49;97431.44;10267099;28;20402;-77
2024/03/27 11:25:26;;;;;;;6.03;3.35;;;;;;;18.00;42.81;97415.22;10249106;28;20039;-77
2024/03/27 11:30:28;;;;;;;6.20;3.40;;;;;;;16.42;44.81;97428.91;10238112;28;20035;-77
2024/03/27 11:35:29;;;;;;;6.60;3.70;;;;;;;16.79;46.53;97412.44;10254369;28;20043;-76
2024/03/27 11:40:30;;;;;;;6.72;4.38;;;;;;;17.24;44.24;97409.91;10232813;28;20118;-76
2024/03/27 11:45:31;;;;;;;5.30;3.83;;;;;;;18.66;42.96;97407.31;10241065;28;20073;-77
2024/03/27 11:50:31;;;;;;;5.63;3.55;;;;;;;18.69;42.14;97412.25;10247022;28;20051;-76
2024/03/27 11:55:32;;;;;;;7.85;3.42;;;;;;;18.46;42.13;97412.44;10244338;28;20031;-78
2024/03/27 12:00:33;;;;;;;7.30;4.00;;;;;;;17.12;44.94;97417.22;10264172;28;20035;-78
2024/03/27 12:05:34;;;;;;;5.88;3.30;;;;;;;17.48;45.78;97434.28;10255092;28;20035;-78
2024/03/27 12:10:35;;;;;;;3.72;3.28;;;;;;;19.12;44.21;97429.75;10245522;28;20090;-78
2024/03/27 12:15:37;;;;;;;4.37;3.20;;;;;;;19.98;40.98;97448.22;10255011;28;20050;-78
2024/03/27 12:20:38;;;;;;;4.90;2.83;;;;;;;18.91;43.42;97442.25;10247897;28;20035;-78
2024/03/27 12:25:38;;;;;;;9.60;3.80;;;;;;;19.61;42.73;97445.34;10258941;28;20505;-77
2024/03/27 12:30:40;;;;;;;4.05;3.10;;;;;;;19.03;45.23;97458.44;10265036;28;20035;-79
2024/03/27 12:35:41;;;;;;;5.45;3.40;;;;;;;20.04;42.19;97455.38;10262362;28;20530;-77
2024/03/27 12:40:42;;;;;;;3.67;3.17;;;;;;;18.41;46.69;97447.69;10246233;28;20077;-77
2024/03/27 12:45:43;;;;;;;7.47;3.28;;;;;;;18.23;46.48;97457.69;10230459;28;20043;-77
2024/03/27 12:50:44;;;;;;;5.65;3.47;;;;;;;19.32;45.52;97455.59;10243987;28;20039;-77
2024/03/27 12:55:45;;;;;;;4.53;3.38;;;;;;;18.32;44.64;97467.13;10264759;28;20386;-77
2024/03/27 13:00:46;;;;;;;5.43;3.60;;;;;;;18.33;45.34;97457.06;10248449;28;20039;-77
2024/03/27 13:05:47;;;;;;;5.72;3.88;;;;;;;18.09;45.90;97456.34;10246823;28;20046;-77
2024/03/27 13:10:47;;;;;;;6.28;4.53;;;;;;;15.70;51.27;97467.63;10248234;28;20143;-77
2024/03/27 13:15:48;;;;;;;5.47;4.18;;;;;;;16.72;48.98;97479.47;10258158;28;20050;-77
2024/03/27 13:20:49;;;;;;;7.97;4.72;;;;;;;15.84;52.35;97489.91;10243734;28;20047;-77
2024/03/27 13:25:50;;;;;;;6.72;4.28;;;;;;;16.25;51.27;97507.25;10261230;28;20062;-77
2024/03/27 13:30:51;;;;;;;4.60;4.10;;;;;;;16.78;49.63;97501.06;10227893;28;20035;-77
2024/03/27 13:35:52;;;;;;;7.20;4.88;;;;;;;16.44;50.46;97504.53;10251540;28;20503;-77
2024/03/27 13:40:52;;;;;;;6.18;4.43;;;;;;;16.56;50.09;97506.22;10226434;28;20055;-77
2024/03/27 13:45:53;;;;;;;7.53;5.28;;;;;;;16.55;51.32;97517.25;10240939;28;20036;-77
2024/03/27 13:50:54;;;;;;;9.45;5.25;;;;;;;16.53;49.31;97501.22;10265302;28;20468;-77
2024/03/27 13:55:55;;;;;;;10.40;5.88;;;;;;;15.51;52.83;97516.56;10266179;28;20534;-78
2024/03/27 14:00:55;;;;;;;7.57;5.90;;;;;;;15.57;53.15;97518.34;10262230;28;20109;-78
2024/03/27 14:05:57;;;;;;;9.57;6.13;;;;;;;16.10;51.45;97513.09;10242904;28;20105;-78
2024/03/27 14:10:57;;;;;;;8.95;5.85;;;;;;;15.73;52.06;97519.63;10257711;28;20052;-78
2024/03/27 14:15:59;;;;;;;9.80;6.75;;;;;;;15.52;53.18;97520.91;10244737;28;20103;-78
2024/03/27 14:20:59;;;;;;;7.70;6.00;;;;;;;15.24;55.07;97503.28;10262324;28;20034;-77
2024/03/27 14:26:00;;;;;;;9.90;7.25;;;;;;;15.19;56.64;97505.84;10234496;28;20059;-77
2024/03/27 14:31:03;;;;;;;10.13;6.50;;;;;;;14.60;56.82;97511.59;10266081;28;20047;-78
2024/03/27 14:36:04;;;;;;;10.00;7.28;;;;;;;15.50;56.33;97520.34;10255173;29;20043;-78
2024/03/27 14:41:04;;;;;;;10.32;8.57;;;;;;;15.12;57.12;97527.56;10262780;28;20050;-76
2024/03/27 14:46:05;;;;;;;10.50;9.02;;;;;;;15.03;57.82;97537.00;10253638;28;20043;-78
2024/03/27 14:51:06;;;;;;;13.18;9.60;;;;;;;14.49;57.47;97544.69;10253068;28;20526;-78
2024/03/27 14:56:07;;;;;;;12.10;10.88;;;;;;;15.14;58.16;97547.09;10278055;28;20078;-78
2024/03/27 15:01:08;;;;;;;13.32;11.88;;;;;;;14.78;57.53;97567.56;10267228;28;20047;-78
2024/03/27 15:06:09;;;;;;;14.90;13.40;;;;;;;14.64;59.60;97562.47;10255999;28;20058;-78
2024/03/27 15:11:09;;;;;;;14.82;13.32;;;;;;;15.18;59.73;97564.50;10225448;28;20055;-77
2024/03/27 15:16:10;;;;;;;13.13;11.82;;;;;;;14.54;58.89;97577.28;10249332;28;20518;-78
2024/03/27 15:21:11;;;;;;;14.20;12.82;;;;;;;14.77;57.57;97578.56;10244399;28;20126;-77
2024/03/27 15:26:12;;;;;;;14.57;13.00;;;;;;;14.16;61.56;97583.50;10258060;28;20043;-78
2024/03/27 15:31:12;;;;;;;15.68;13.07;;;;;;;13.12;64.88;97587.09;10243505;28;20040;-77
2024/03/27 15:36:13;;;;;;;14.55;12.90;;;;;;;13.07;65.50;97589.56;10241063;29;20035;-78
2024/03/27 15:41:14;;;;;;;15.48;11.77;;;;;;;13.41;63.25;97591.25;10256365;28;20040;-78
2024/03/27 15:46:15;;;;;;;13.55;12.15;;;;;;;13.58;62.77;97590.78;10259755;28;20065;-77
2024/03/27 15:51:16;;;;;;;14.45;13.05;;;;;;;13.45;63.17;97587.06;10248616;28;20122;-78
2024/03/27 15:56:20;;;;;;;14.27;12.88;;;;;;;13.44;63.72;97593.50;10227537;29;20043;-78
2024/03/27 16:01:21;;;;;;;13.38;11.98;;;;;;;13.02;64.38;97600.97;10262777;28;20051;-78
2024/03/27 16:06:22;;;;;;;12.73;11.45;;;;;;;12.88;65.38;97614.66;10252923;28;20043;-78
2024/03/27 16:11:23;;;;;;;11.52;10.32;;;;;;;13.44;63.48;97627.72;10256456;28;20035;-78
2024/03/27 16:16:24;;;;;;;12.75;11.23;;;;;;;12.92;64.16;97632.91;10260418;28;20031;-78
2024/03/27 16:21:25;;;;;;;12.95;11.20;;;;;;;12.27;65.46;97648.66;10294497;29;20185;-78
2024/03/27 16:26:26;;;;;;;12.60;11.30;;;;;;;12.25;66.13;97655.28;10265511;29;20047;-78
2024/03/27 16:31:26;;;;;;;15.10;11.77;;;;;;;12.31;66.03;97641.91;10250649;29;20081;-78
2024/03/27 16:36:27;;;;;;;12.77;10.77;;;;;;;12.33;65.28;97639.00;10241067;29;20035;-78
2024/03/27 16:41:28;;;;;;;13.68;12.02;;;;;;;12.46;63.90;97641.72;10238620;28;20043;-78
2024/03/27 16:46:29;;;;;;;13.00;11.43;;;;;;;12.35;64.64;97642.31;10261242;28;20035;-78
2024/03/27 16:51:30;;;;;;;13.25;10.32;;;;;;;12.59;63.11;97639.06;10297518;28;20051;-79
2024/03/27 16:56:30;;;;;;;13.93;10.90;;;;;;;12.71;62.62;97631.22;10266195;28;20129;-78
2024/03/27 17:01:31;;;;;;;12.15;10.88;;;;;;;12.76;64.93;97639.50;10287550;28;20059;-78
2024/03/27 17:06:32;;;;;;;11.88;10.05;;;;;;;12.67;61.92;97645.28;10284625;28;20043;-78
2024/03/27 17:11:33;;;;;;;12.10;10.23;;;;;;;12.23;64.11;97660.88;10253917;28;20055;-78
2024/03/27 17:16:34;;;;;;;12.48;9.90;;;;;;;11.87;66.08;97658.41;10245029;29;20047;-79
2024/03/27 17:21:35;;;;;;;12.60;9.07;;;;;;;11.74;68.21;97667.25;10261725;28;20035;-78
2024/03/27 17:26:35;;;;;;;11.27;8.35;;;;;;;11.44;71.04;97685.47;10246529;29;20051;-78
2024/03/27 17:31:36;;;;;;;9.35;7.57;;;;;;;10.66;76.99;97684.50;10255948;28;20522;-78
2024/03/27 17:36:37;;;;;;;9.65;7.18;;;;;;;10.96;76.10;97685.22;10242704;29;20526;-78
2024/03/27 17:41:38;;;;;;;10.32;7.97;;;;;;;10.55;76.71;97693.91;10285287;28;20053;-77
2024/03/27 17:46:38;;;;;;;10.27;8.05;;;;;;;10.15;79.47;97686.22;10284979;28;20043;-78
2024/03/27 17:51:41;;;;;;;16.88;12.63;;;;;;;10.16;80.32;97674.47;10241888;29;20031;-78
2024/03/27 17:56:41;;;;;;;15.38;12.15;;;;;;;10.61;78.38;97679.72;10241587;29;20047;-79
2024/03/27 18:01:43;;;;;;;14.30;9.30;;;;;;;10.33;79.40;97679.59;10244194;29;20044;-79
2024/03/27 18:06:45;;;;;;;17.45;11.60;;;;;;;10.90;76.97;97681.47;10267310;28;20430;-79
2024/03/27 18:11:46;;;;;;;13.27;9.73;;;;;;;10.16;80.53;97706.66;10257086;28;20039;-79
2024/03/27 18:16:47;;;;;;;11.43;8.93;;;;;;;10.13;80.87;97723.13;10264831;28;20047;-79
2024/03/27 18:21:48;;;;;;;14.15;9.70;;;;;;;10.36;78.29;97716.78;10228261;29;20094;-79
2024/03/27 18:26:49;;;;;;;14.48;10.35;;;;;;;9.98;82.23;97721.44;10240231;29;20063;-79
2024/03/27 18:31:50;;;;;;;14.50;8.57;;;;;;;10.37;80.75;97730.03;10244920;28;20043;-79
2024/03/27 18:36:51;;;;;;;15.60;9.90;;;;;;;10.03;83.69;97737.81;10250548;28;20057;-78
2024/03/27 18:41:52;;;;;;;16.40;9.80;;;;;;;9.89;83.16;97732.28;10238658;28;20094;-78
2024/03/27 18:46:53;;;;;;;17.83;10.48;;;;;;;9.64;88.33;97737.03;10247254;29;20070;-78
2024/03/27 18:51:53;;;;;;;17.90;10.55;;;;;;;9.93;88.74;97728.22;10254065;29;20043;-78
2024/03/27 18:56:54;;;;;;;18.48;11.15;;;;;;;9.94;91.54;97721.81;10256203;29;20043;-78
2024/03/27 19:01:55;;;;;;;17.92;10.95;;;;;;;9.48;91.17;97732.66;10258697;28;20039;-78
2024/03/27 19:06:56;;;;;;;19.15;11.80;;;;;;;9.50;92.39;97729.81;10268771;29;20051;-79
2024/03/27 19:11:58;;;;;;;24.75;16.23;;;;;;;9.61;93.06;97721.31;10240775;29;20047;-79
2024/03/27 19:16:59;;;;;;;22.67;13.07;;;;;;;9.79;93.20;97717.44;10278969;28;20563;-79
2024/03/27 19:22:00;;;;;;;20.70;12.95;;;;;;;9.54;93.50;97711.50;10278483;28;20064;-79
2024/03/27 19:27:00;;;;;;;21.52;12.95;;;;;;;9.78;92.98;97713.94;10271016;29;20051;-78
2024/03/27 19:32:01;;;;;;;23.70;14.13;;;;;;;9.97;93.12;97715.25;10265425;28;20095;-79
2024/03/27 19:37:02;;;;;;;23.33;14.07;;;;;;;9.67;94.21;97707.16;10245517;29;20047;-78
2024/03/27 19:42:03;;;;;;;27.23;15.25;;;;;;;9.51;94.74;97704.66;10252000;28;20043;-79
2024/03/27 19:47:04;;;;;;;28.70;16.33;;;;;;;9.29;94.63;97704.53;10253975;29;20062;-79
2024/03/27 19:52:05;;;;;;;28.83;16.73;;;;;;;8.83;96.07;97709.94;10255771;28;20050;-79
2024/03/27 19:57:06;;;;;;;30.48;17.33;;;;;;;8.64;97.53;97699.69;10265203;28;20641;-79
2024/03/27 20:02:07;;;;;;;32.10;17.58;;;;;;;8.70;95.47;97704.34;10247031;29;20090;-79
2024/03/27 20:07:08;;;;;;;34.70;19.10;;;;;;;8.69;96.61;97697.31;10253438;29;20071;-78
2024/03/27 20:12:09;;;;;;;32.60;17.40;;;;;;;8.51;98.37;97705.63;10232304;28;20050;-78
2024/03/27 20:17:10;;;;;;;36.00;18.48;;;;;;;8.95;96.37;97712.19;10237412;28;20048;-78
2024/03/27 20:22:11;;;;;;;33.83;18.38;;;;;;;8.77;97.01;97702.59;10254765;28;20530;-79
2024/03/27 20:27:12;;;;;;;37.45;17.75;;;;;;;8.51;97.94;97704.81;10245804;28;20057;-78
2024/03/27 20:32:14;;;;;;;34.53;18.33;;;;;;;8.66;96.08;97699.50;10256318;28;20043;-79
2024/03/27 20:37:16;;;;;;;39.50;22.48;;;;;;;8.76;97.49;97689.41;10257588;28;20040;-79
2024/03/27 20:42:19;;;;;;;39.33;20.92;;;;;;;8.64;95.48;97701.53;10240204;28;20466;-79
2024/03/27 20:47:19;;;;;;;45.88;23.35;;;;;;;8.09;100.00;97703.28;10247338;28;20076;-79
2024/03/27 20:52:20;;;;;;;41.20;22.08;;;;;;;8.12;100.00;97685.06;10264367;28;20070;-79
2024/03/27 20:57:21;;;;;;;43.53;22.05;;;;;;;8.17;100.00;97666.69;10271419;28;20054;-79
2024/03/27 21:02:22;;;;;;;45.75;22.52;;;;;;;8.11;100.00;97650.47;10271534;28;20051;-78
2024/03/27 21:07:23;;;;;;;67.07;40.15;;;;;;;8.39;100.00;97653.50;10252705;28;20055;-78
2024/03/27 21:12:31;;;;;;;83.95;46.92;;;;;;;8.41;100.00;97648.81;10255711;29;20128;-79
2024/03/27 21:17:32;;;;;;;75.53;40.15;;;;;;;8.19;100.00;97642.41;10237557;28;20510;-79
2024/03/27 21:22:33;;;;;;;51.03;24.08;;;;;;;8.05;100.00;97633.31;10264735;28;20094;-79
2024/03/27 21:27:33;;;;;;;43.17;20.75;;;;;;;7.88;100.00;97659.28;10256179;28;20047;-78
2024/03/27 21:32:34;;;;;;;45.88;21.15;;;;;;;7.85;100.00;97664.16;10253721;29;20035;-78
2024/03/27 21:37:35;;;;;;;42.28;20.08;;;;;;;7.79;100.00;97665.69;10269831;28;20062;-78
2024/03/27 21:42:37;;;;;;;47.65;22.58;;;;;;;8.04;100.00;97665.56;10259447;29;20201;-78
2024/03/27 21:47:38;;;;;;;47.37;22.67;;;;;;;8.03;100.00;97655.88;10249127;28;20159;-78
2024/03/27 21:52:38;;;;;;;46.78;22.45;;;;;;;8.03;100.00;97666.56;10246185;28;20898;-79
2024/03/27 21:57:39;;;;;;;43.13;21.17;;;;;;;7.85;100.00;97661.47;10271421;28;20023;-81
2024/03/27 22:02:40;;;;;;;47.97;22.67;;;;;;;8.07;100.00;97658.03;10290556;28;20095;-79
2024/03/27 22:07:44;;;;;;;48.08;21.73;;;;;;;7.84;100.00;97675.81;10250868;28;20039;-79
2024/03/27 22:12:44;;;;;;;46.70;22.83;;;;;;;7.54;100.00;97664.06;10220095;28;20039;-78
2024/03/27 22:17:45;;;;;;;47.45;21.42;;;;;;;7.45;100.00;97650.72;10254923;28;20079;-79
2024/03/27 22:22:47;;;;;;;46.55;22.38;;;;;;;7.69;100.00;97633.81;10258820;29;20047;-78
2024/03/27 22:27:48;;;;;;;45.28;21.33;;;;;;;7.53;100.00;97636.53;10249850;28;20054;-77
2024/03/27 22:32:49;;;;;;;51.50;22.27;;;;;;;7.15;100.00;97622.94;10250380;29;20107;-78
2024/03/27 22:37:50;;;;;;;46.40;20.95;;;;;;;7.23;100.00;97606.91;10246617;28;21027;-78
2024/03/27 22:42:50;;;;;;;54.53;22.73;;;;;;;7.50;100.00;97604.81;10249988;28;20062;-78
2024/03/27 22:47:52;;;;;;;48.13;21.95;;;;;;;7.63;100.00;97596.28;10248151;29;20091;-78
2024/03/27 22:52:52;;;;;;;55.22;22.35;;;;;;;7.57;100.00;97595.13;10253039;29;20038;-78
2024/03/27 22:57:53;;;;;;;52.40;22.15;;;;;;;7.26;100.00;97600.38;10272448;28;20058;-78
2024/03/27 23:02:54;;;;;;;51.78;21.00;;;;;;;7.44;100.00;97589.50;10262827;28;20039;-79
2024/03/27 23:07:55;;;;;;;46.70;21.85;;;;;;;7.29;100.00;97581.34;10262809;28;20047;-79
2024/03/27 23:12:56;;;;;;;52.80;22.33;;;;;;;7.29;100.00;97584.03;10279058;28;20053;-77